sensor_id;sensor_type;location;lat;lon;timestamp;temperature;humidity
11983;DHT22;72623;51.184;7.176;2024-02-21T00:01:21;9.30;99.90
11983;DHT22;72623;51.184;7.176;2024-02-21T00:03:48;9.30;99.90
11983;DHT22;72623;51.184;7.176;2024-02-21T00:06:14;9.30;99.90
11983;DHT22;72623;51.184;7.176;2024-02-21T00:08:41;9.30;99.90
11983;DHT22;72623;51.184;7.176;2024-02-21T00:11:08;9.20;99.90
11983;DHT22;72623;51.184;7.176;2024-02-21T00:13:35;9.20;99.90
11983;DHT22;72623;51.184;7.176;2024-02-21T00:16:01;9.30;99.90
11983;DHT22;72623;51.184;7.176;2024-02-21T00:18:28;9.30;99.90
11983;DHT22;72623;51.184;7.176;2024-02-21T00:20:55;9.30;99.90
11983;DHT22;72623;51.184;7.176;2024-02-21T00:23:22;9.30;99.90
11983;DHT22;72623;51.184;7.176;2024-02-21T00:25:49;9.30;99.90
11983;DHT22;72623;51.184;7.176;2024-02-21T00:28:16;9.30;99.90
11983;DHT22;72623;51.184;7.176;2024-02-21T00:30:42;9.30;99.90
11983;DHT22;72623;51.184;7.176;2024-02-21T00:33:09;9.30;99.90
11983;DHT22;72623;51.184;7.176;2024-02-21T00:35:36;9.20;99.90
11983;DHT22;72623;51.184;7.176;2024-02-21T00:38:03;9.30;99.90
11983;DHT22;72623;51.184;7.176;2024-02-21T00:40:30;9.30;99.90
11983;DHT22;72623;51.184;7.176;2024-02-21T00:42:57;9.30;99.90
11983;DHT22;72623;51.184;7.176;2024-02-21T00:45:24;9.30;99.90
11983;DHT22;72623;51.184;7.176;2024-02-21T00:47:50;9.30;99.90
11983;DHT22;72623;51.184;7.176;2024-02-21T00:50:17;9.30;99.90
11983;DHT22;72623;51.184;7.176;2024-02-21T00:52:44;9.20;99.90
11983;DHT22;72623;51.184;7.176;2024-02-21T00:55:11;9.30;99.90
11983;DHT22;72623;51.184;7.176;2024-02-21T00:57:38;9.30;99.90
11983;DHT22;72623;51.184;7.176;2024-02-21T01:00:05;9.30;99.90
11983;DHT22;72623;51.184;7.176;2024-02-21T01:02:33;9.30;99.90
11983;DHT22;72623;51.184;7.176;2024-02-21T01:05:00;9.30;99.90
11983;DHT22;72623;51.184;7.176;2024-02-21T01:07:27;9.30;99.90
11983;DHT22;72623;51.184;7.176;2024-02-21T01:09:53;9.20;99.90
11983;DHT22;72623;51.184;7.176;2024-02-21T01:12:20;9.20;99.90
11983;DHT22;72623;51.184;7.176;2024-02-21T01:14:47;9.20;99.90
11983;DHT22;72623;51.184;7.176;2024-02-21T01:17:15;9.30;99.90
11983;DHT22;72623;51.184;7.176;2024-02-21T01:19:41;9.30;99.90
11983;DHT22;72623;51.184;7.176;2024-02-21T01:22:08;9.30;99.90
11983;DHT22;72623;51.184;7.176;2024-02-21T01:24:35;9.20;99.90
11983;DHT22;72623;51.184;7.176;2024-02-21T01:27:02;9.20;99.90
11983;DHT22;72623;51.184;7.176;2024-02-21T01:29:29;9.30;99.90
11983;DHT22;72623;51.184;7.176;2024-02-21T01:31:55;9.30;99.90
11983;DHT22;72623;51.184;7.176;2024-02-21T01:34:22;9.30;99.90
11983;DHT22;72623;51.184;7.176;2024-02-21T01:36:49;9.30;99.90
11983;DHT22;72623;51.184;7.176;2024-02-21T01:39:15;9.30;99.90
11983;DHT22;72623;51.184;7.176;2024-02-21T01:41:43;9.30;99.90
11983;DHT22;72623;51.184;7.176;2024-02-21T01:44:09;9.30;99.90
11983;DHT22;72623;51.184;7.176;2024-02-21T01:46:36;9.30;99.90
11983;DHT22;72623;51.184;7.176;2024-02-21T01:49:04;9.30;99.90
11983;DHT22;72623;51.184;7.176;2024-02-21T01:51:31;9.30;99.90
11983;DHT22;72623;51.184;7.176;2024-02-21T01:53:58;9.30;99.90
11983;DHT22;72623;51.184;7.176;2024-02-21T01:56:25;9.30;99.90
11983;DHT22;72623;51.184;7.176;2024-02-21T01:58:52;9.30;99.90
11983;DHT22;72623;51.184;7.176;2024-02-21T02:01:19;9.30;99.90
11983;DHT22;72623;51.184;7.176;2024-02-21T02:03:46;9.30;99.90
11983;DHT22;72623;51.184;7.176;2024-02-21T02:06:13;9.30;99.90
11983;DHT22;72623;51.184;7.176;2024-02-21T02:08:40;9.40;99.90
11983;DHT22;72623;51.184;7.176;2024-02-21T02:11:08;9.30;99.90
11983;DHT22;72623;51.184;7.176;2024-02-21T02:13:35;9.30;99.90
11983;DHT22;72623;51.184;7.176;2024-02-21T02:16:02;9.20;99.90
11983;DHT22;72623;51.184;7.176;2024-02-21T02:18:29;9.20;99.90
11983;DHT22;72623;51.184;7.176;2024-02-21T02:20:55;9.30;99.90
11983;DHT22;72623;51.184;7.176;2024-02-21T02:23:30;9.20;99.90
11983;DHT22;72623;51.184;7.176;2024-02-21T02:25:58;9.20;99.90
11983;DHT22;72623;51.184;7.176;2024-02-21T02:28:26;9.20;99.90
11983;DHT22;72623;51.184;7.176;2024-02-21T02:30:53;9.30;99.90
11983;DHT22;72623;51.184;7.176;2024-02-21T02:33:20;9.20;99.90
11983;DHT22;72623;51.184;7.176;2024-02-21T02:35:46;9.20;99.90
11983;DHT22;72623;51.184;7.176;2024-02-21T02:38:13;9.30;99.90
11983;DHT22;72623;51.184;7.176;2024-02-21T02:40:41;9.20;99.90
11983;DHT22;72623;51.184;7.176;2024-02-21T02:43:08;9.30;99.90
11983;DHT22;72623;51.184;7.176;2024-02-21T02:45:35;9.30;99.90
11983;DHT22;72623;51.184;7.176;2024-02-21T02:48:02;9.30;99.90
11983;DHT22;72623;51.184;7.176;2024-02-21T02:50:28;9.30;99.90
11983;DHT22;72623;51.184;7.176;2024-02-21T02:52:55;9.20;99.90
11983;DHT22;72623;51.184;7.176;2024-02-21T02:55:22;9.20;99.90
11983;DHT22;72623;51.184;7.176;2024-02-21T02:57:49;9.30;99.90
11983;DHT22;72623;51.184;7.176;2024-02-21T03:00:16;9.30;99.90
11983;DHT22;72623;51.184;7.176;2024-02-21T03:02:45;9.20;99.90
11983;DHT22;72623;51.184;7.176;2024-02-21T03:05:14;9.20;99.90
11983;DHT22;72623;51.184;7.176;2024-02-21T03:07:41;9.20;99.90
11983;DHT22;72623;51.184;7.176;2024-02-21T03:10:09;9.30;99.90
11983;DHT22;72623;51.184;7.176;2024-02-21T03:12:36;9.20;99.90
11983;DHT22;72623;51.184;7.176;2024-02-21T03:15:04;9.20;99.90
11983;DHT22;72623;51.184;7.176;2024-02-21T03:17:31;9.20;99.90
11983;DHT22;72623;51.184;7.176;2024-02-21T03:20:00;9.20;99.90
11983;DHT22;72623;51.184;7.176;2024-02-21T03:22:31;9.20;99.90
11983;DHT22;72623;51.184;7.176;2024-02-21T03:24:58;9.10;99.90
11983;DHT22;72623;51.184;7.176;2024-02-21T03:27:25;9.10;99.90
11983;DHT22;72623;51.184;7.176;2024-02-21T03:29:52;9.20;99.90
11983;DHT22;72623;51.184;7.176;2024-02-21T03:32:19;9.20;99.90
11983;DHT22;72623;51.184;7.176;2024-02-21T03:34:52;9.20;99.90
11983;DHT22;72623;51.184;7.176;2024-02-21T03:37:18;9.20;99.90
11983;DHT22;72623;51.184;7.176;2024-02-21T03:39:45;9.20;99.90
11983;DHT22;72623;51.184;7.176;2024-02-21T03:42:12;9.20;99.90
11983;DHT22;72623;51.184;7.176;2024-02-21T03:44:39;9.20;99.90
11983;DHT22;72623;51.184;7.176;2024-02-21T03:47:05;9.10;99.90
11983;DHT22;72623;51.184;7.176;2024-02-21T03:49:35;9.20;99.90
11983;DHT22;72623;51.184;7.176;2024-02-21T03:52:02;9.20;99.90
11983;DHT22;72623;51.184;7.176;2024-02-21T03:54:29;9.20;99.90
11983;DHT22;72623;51.184;7.176;2024-02-21T03:56:56;9.20;99.90
11983;DHT22;72623;51.184;7.176;2024-02-21T03:59:23;9.30;99.90
11983;DHT22;72623;51.184;7.176;2024-02-21T04:01:53;9.30;99.90
11983;DHT22;72623;51.184;7.176;2024-02-21T04:04:20;9.20;99.90
11983;DHT22;72623;51.184;7.176;2024-02-21T04:06:48;9.10;99.90
11983;DHT22;72623;51.184;7.176;2024-02-21T04:09:15;9.20;99.90
11983;DHT22;72623;51.184;7.176;2024-02-21T04:11:42;9.20;99.90
11983;DHT22;72623;51.184;7.176;2024-02-21T04:14:09;9.20;99.90
11983;DHT22;72623;51.184;7.176;2024-02-21T04:16:36;9.20;99.90
11983;DHT22;72623;51.184;7.176;2024-02-21T04:19:29;9.20;99.90
11983;DHT22;72623;51.184;7.176;2024-02-21T04:21:56;9.20;99.90
11983;DHT22;72623;51.184;7.176;2024-02-21T04:24:23;9.20;99.90
11983;DHT22;72623;51.184;7.176;2024-02-21T04:26:49;9.20;99.90
11983;DHT22;72623;51.184;7.176;2024-02-21T04:29:16;9.20;99.90
11983;DHT22;72623;51.184;7.176;2024-02-21T04:31:43;9.20;99.90
11983;DHT22;72623;51.184;7.176;2024-02-21T04:34:10;9.20;99.90
11983;DHT22;72623;51.184;7.176;2024-02-21T04:36:37;9.10;99.90
11983;DHT22;72623;51.184;7.176;2024-02-21T04:39:04;9.10;99.90
11983;DHT22;72623;51.184;7.176;2024-02-21T04:41:30;9.10;99.90
11983;DHT22;72623;51.184;7.176;2024-02-21T04:43:57;9.10;99.90
11983;DHT22;72623;51.184;7.176;2024-02-21T04:46:24;9.20;99.90
11983;DHT22;72623;51.184;7.176;2024-02-21T04:48:51;9.20;99.90
11983;DHT22;72623;51.184;7.176;2024-02-21T04:51:18;9.30;99.90
11983;DHT22;72623;51.184;7.176;2024-02-21T04:53:45;9.20;99.90
11983;DHT22;72623;51.184;7.176;2024-02-21T04:56:12;9.20;99.90
11983;DHT22;72623;51.184;7.176;2024-02-21T04:58:39;9.20;99.90
11983;DHT22;72623;51.184;7.176;2024-02-21T05:01:06;9.20;99.90
11983;DHT22;72623;51.184;7.176;2024-02-21T05:03:33;9.20;99.90
11983;DHT22;72623;51.184;7.176;2024-02-21T05:06:00;9.20;99.90
11983;DHT22;72623;51.184;7.176;2024-02-21T05:08:27;9.20;99.90
11983;DHT22;72623;51.184;7.176;2024-02-21T05:10:53;9.30;99.90
11983;DHT22;72623;51.184;7.176;2024-02-21T05:13:20;9.30;99.90
11983;DHT22;72623;51.184;7.176;2024-02-21T05:15:47;9.30;99.90
11983;DHT22;72623;51.184;7.176;2024-02-21T05:18:18;9.20;99.90
11983;DHT22;72623;51.184;7.176;2024-02-21T05:20:46;9.20;99.90
11983;DHT22;72623;51.184;7.176;2024-02-21T05:23:12;9.20;99.90
11983;DHT22;72623;51.184;7.176;2024-02-21T05:25:39;9.20;99.90
11983;DHT22;72623;51.184;7.176;2024-02-21T05:28:06;9.20;99.90
11983;DHT22;72623;51.184;7.176;2024-02-21T05:30:34;9.20;99.90
11983;DHT22;72623;51.184;7.176;2024-02-21T05:33:05;9.20;99.90
11983;DHT22;72623;51.184;7.176;2024-02-21T05:35:32;9.20;99.90
11983;DHT22;72623;51.184;7.176;2024-02-21T05:37:59;9.20;99.90
11983;DHT22;72623;51.184;7.176;2024-02-21T05:40:26;9.20;99.90
11983;DHT22;72623;51.184;7.176;2024-02-21T05:42:52;9.20;99.90
11983;DHT22;72623;51.184;7.176;2024-02-21T05:45:19;9.20;99.90
11983;DHT22;72623;51.184;7.176;2024-02-21T05:47:46;9.20;99.90
11983;DHT22;72623;51.184;7.176;2024-02-21T05:50:13;9.20;99.90
11983;DHT22;72623;51.184;7.176;2024-02-21T05:52:39;9.20;99.90
11983;DHT22;72623;51.184;7.176;2024-02-21T05:55:07;9.20;99.90
11983;DHT22;72623;51.184;7.176;2024-02-21T05:57:34;9.20;99.90
11983;DHT22;72623;51.184;7.176;2024-02-21T06:00:04;9.20;99.90
11983;DHT22;72623;51.184;7.176;2024-02-21T06:02:31;9.30;99.90
11983;DHT22;72623;51.184;7.176;2024-02-21T06:04:58;9.30;99.90
11983;DHT22;72623;51.184;7.176;2024-02-21T06:07:25;9.20;99.90
11983;DHT22;72623;51.184;7.176;2024-02-21T06:09:51;9.20;99.90
11983;DHT22;72623;51.184;7.176;2024-02-21T06:12:18;9.20;99.90
11983;DHT22;72623;51.184;7.176;2024-02-21T06:14:45;9.20;99.90
11983;DHT22;72623;51.184;7.176;2024-02-21T06:17:20;9.20;99.90
11983;DHT22;72623;51.184;7.176;2024-02-21T06:19:47;9.20;99.90
11983;DHT22;72623;51.184;7.176;2024-02-21T06:22:16;9.20;99.90
11983;DHT22;72623;51.184;7.176;2024-02-21T06:24:43;9.20;99.90
11983;DHT22;72623;51.184;7.176;2024-02-21T06:27:11;9.20;99.90
11983;DHT22;72623;51.184;7.176;2024-02-21T06:29:40;9.20;99.90
11983;DHT22;72623;51.184;7.176;2024-02-21T06:32:06;9.20;99.90
11983;DHT22;72623;51.184;7.176;2024-02-21T06:34:36;9.20;99.90
11983;DHT22;72623;51.184;7.176;2024-02-21T06:37:07;9.10;99.90
11983;DHT22;72623;51.184;7.176;2024-02-21T06:39:37;9.10;99.90
11983;DHT22;72623;51.184;7.176;2024-02-21T06:42:06;9.10;99.90
11983;DHT22;72623;51.184;7.176;2024-02-21T06:44:33;9.10;99.90
11983;DHT22;72623;51.184;7.176;2024-02-21T06:47:06;9.10;99.90
11983;DHT22;72623;51.184;7.176;2024-02-21T06:49:33;9.10;99.90
11983;DHT22;72623;51.184;7.176;2024-02-21T06:52:00;9.10;99.90
11983;DHT22;72623;51.184;7.176;2024-02-21T06:54:26;9.10;99.90
11983;DHT22;72623;51.184;7.176;2024-02-21T06:56:53;9.10;99.90
11983;DHT22;72623;51.184;7.176;2024-02-21T06:59:20;9.10;99.90
11983;DHT22;72623;51.184;7.176;2024-02-21T07:01:54;9.00;99.90
11983;DHT22;72623;51.184;7.176;2024-02-21T07:04:40;9.00;99.90
11983;DHT22;72623;51.184;7.176;2024-02-21T07:07:09;9.00;99.90
11983;DHT22;72623;51.184;7.176;2024-02-21T07:09:36;9.10;99.90
11983;DHT22;72623;51.184;7.176;2024-02-21T07:12:02;9.10;99.90
11983;DHT22;72623;51.184;7.176;2024-02-21T07:14:32;9.10;99.90
11983;DHT22;72623;51.184;7.176;2024-02-21T07:16:59;9.10;99.90
11983;DHT22;72623;51.184;7.176;2024-02-21T07:19:26;9.10;99.90
11983;DHT22;72623;51.184;7.176;2024-02-21T07:21:53;9.10;99.90
11983;DHT22;72623;51.184;7.176;2024-02-21T07:24:26;9.10;99.90
11983;DHT22;72623;51.184;7.176;2024-02-21T07:26:59;9.10;99.90
11983;DHT22;72623;51.184;7.176;2024-02-21T07:29:30;9.20;99.90
11983;DHT22;72623;51.184;7.176;2024-02-21T07:31:57;9.10;99.90
11983;DHT22;72623;51.184;7.176;2024-02-21T07:34:24;9.10;99.90
11983;DHT22;72623;51.184;7.176;2024-02-21T07:36:50;9.10;99.90
11983;DHT22;72623;51.184;7.176;2024-02-21T07:39:17;9.10;99.90
11983;DHT22;72623;51.184;7.176;2024-02-21T07:41:44;9.20;99.90
11983;DHT22;72623;51.184;7.176;2024-02-21T07:44:12;9.20;99.90
11983;DHT22;72623;51.184;7.176;2024-02-21T07:46:39;9.10;99.90
11983;DHT22;72623;51.184;7.176;2024-02-21T07:49:05;9.20;99.90
11983;DHT22;72623;51.184;7.176;2024-02-21T07:51:32;9.20;99.90
11983;DHT22;72623;51.184;7.176;2024-02-21T07:54:00;9.20;99.90
11983;DHT22;72623;51.184;7.176;2024-02-21T07:56:27;9.20;99.90
11983;DHT22;72623;51.184;7.176;2024-02-21T07:58:55;9.20;99.90
11983;DHT22;72623;51.184;7.176;2024-02-21T08:01:22;9.10;99.90
11983;DHT22;72623;51.184;7.176;2024-02-21T08:03:48;9.10;99.90
11983;DHT22;72623;51.184;7.176;2024-02-21T08:06:15;9.10;99.90
11983;DHT22;72623;51.184;7.176;2024-02-21T08:08:42;9.10;99.90
11983;DHT22;72623;51.184;7.176;2024-02-21T08:11:09;9.10;99.90
11983;DHT22;72623;51.184;7.176;2024-02-21T08:13:35;9.10;99.90
11983;DHT22;72623;51.184;7.176;2024-02-21T08:16:02;9.10;99.90
11983;DHT22;72623;51.184;7.176;2024-02-21T08:18:29;9.10;99.90
11983;DHT22;72623;51.184;7.176;2024-02-21T08:20:56;9.10;99.90
11983;DHT22;72623;51.184;7.176;2024-02-21T08:23:23;9.10;99.90
11983;DHT22;72623;51.184;7.176;2024-02-21T08:25:50;9.10;99.90
11983;DHT22;72623;51.184;7.176;2024-02-21T08:28:17;9.20;99.90
11983;DHT22;72623;51.184;7.176;2024-02-21T08:30:44;9.20;99.90
11983;DHT22;72623;51.184;7.176;2024-02-21T08:33:14;9.20;99.90
11983;DHT22;72623;51.184;7.176;2024-02-21T08:35:42;9.20;99.90
11983;DHT22;72623;51.184;7.176;2024-02-21T08:38:09;9.20;99.90
11983;DHT22;72623;51.184;7.176;2024-02-21T08:40:36;9.30;99.90
11983;DHT22;72623;51.184;7.176;2024-02-21T08:43:03;9.30;99.90
11983;DHT22;72623;51.184;7.176;2024-02-21T08:45:30;9.20;99.90
11983;DHT22;72623;51.184;7.176;2024-02-21T08:47:57;9.20;99.90
11983;DHT22;72623;51.184;7.176;2024-02-21T08:50:23;9.20;99.90
11983;DHT22;72623;51.184;7.176;2024-02-21T08:52:50;9.20;99.90
11983;DHT22;72623;51.184;7.176;2024-02-21T08:55:17;9.20;99.90
11983;DHT22;72623;51.184;7.176;2024-02-21T08:57:44;9.20;99.90
11983;DHT22;72623;51.184;7.176;2024-02-21T09:00:11;9.20;99.90
11983;DHT22;72623;51.184;7.176;2024-02-21T09:02:40;9.10;99.90
11983;DHT22;72623;51.184;7.176;2024-02-21T09:05:08;9.10;99.90
11983;DHT22;72623;51.184;7.176;2024-02-21T09:07:35;9.10;99.90
11983;DHT22;72623;51.184;7.176;2024-02-21T09:10:02;9.10;99.90
11983;DHT22;72623;51.184;7.176;2024-02-21T09:12:29;9.10;99.90
11983;DHT22;72623;51.184;7.176;2024-02-21T09:14:57;9.10;99.90
11983;DHT22;72623;51.184;7.176;2024-02-21T09:17:24;9.10;99.90
11983;DHT22;72623;51.184;7.176;2024-02-21T09:19:54;9.10;99.90
11983;DHT22;72623;51.184;7.176;2024-02-21T09:22:24;9.10;99.90
11983;DHT22;72623;51.184;7.176;2024-02-21T09:24:51;9.10;99.90
11983;DHT22;72623;51.184;7.176;2024-02-21T09:27:17;9.10;99.90
11983;DHT22;72623;51.184;7.176;2024-02-21T09:29:44;9.10;99.90
11983;DHT22;72623;51.184;7.176;2024-02-21T09:32:11;9.20;99.90
11983;DHT22;72623;51.184;7.176;2024-02-21T09:34:39;9.10;99.90
11983;DHT22;72623;51.184;7.176;2024-02-21T09:37:06;9.10;99.90
11983;DHT22;72623;51.184;7.176;2024-02-21T09:39:33;9.10;99.90
11983;DHT22;72623;51.184;7.176;2024-02-21T09:42:06;9.20;99.90
11983;DHT22;72623;51.184;7.176;2024-02-21T09:44:36;9.10;99.90
11983;DHT22;72623;51.184;7.176;2024-02-21T09:47:06;9.10;99.90
11983;DHT22;72623;51.184;7.176;2024-02-21T09:49:34;9.20;99.90
11983;DHT22;72623;51.184;7.176;2024-02-21T09:52:05;9.20;99.90
11983;DHT22;72623;51.184;7.176;2024-02-21T09:54:36;9.20;99.90
11983;DHT22;72623;51.184;7.176;2024-02-21T09:57:03;9.20;99.90
11983;DHT22;72623;51.184;7.176;2024-02-21T09:59:32;9.20;99.90
11983;DHT22;72623;51.184;7.176;2024-02-21T10:01:59;9.20;99.90
11983;DHT22;72623;51.184;7.176;2024-02-21T10:04:27;9.20;99.90
11983;DHT22;72623;51.184;7.176;2024-02-21T10:06:54;9.20;99.90
11983;DHT22;72623;51.184;7.176;2024-02-21T10:09:27;9.30;99.90
11983;DHT22;72623;51.184;7.176;2024-02-21T10:11:55;9.30;99.90
11983;DHT22;72623;51.184;7.176;2024-02-21T10:14:22;9.40;99.90
11983;DHT22;72623;51.184;7.176;2024-02-21T10:16:57;9.40;99.90
11983;DHT22;72623;51.184;7.176;2024-02-21T10:19:24;9.50;99.90
11983;DHT22;72623;51.184;7.176;2024-02-21T10:22:05;9.50;99.90
11983;DHT22;72623;51.184;7.176;2024-02-21T10:24:34;9.50;99.90
11983;DHT22;72623;51.184;7.176;2024-02-21T10:27:04;9.50;99.90
11983;DHT22;72623;51.184;7.176;2024-02-21T10:29:34;9.60;99.90
11983;DHT22;72623;51.184;7.176;2024-02-21T10:32:08;9.50;99.90
11983;DHT22;72623;51.184;7.176;2024-02-21T10:34:36;9.60;99.90
11983;DHT22;72623;51.184;7.176;2024-02-21T10:37:07;9.60;99.90
11983;DHT22;72623;51.184;7.176;2024-02-21T10:39:54;9.70;99.90
11983;DHT22;72623;51.184;7.176;2024-02-21T10:45:47;9.80;99.90
11983;DHT22;72623;51.184;7.176;2024-02-21T10:48:24;9.90;99.90
11983;DHT22;72623;51.184;7.176;2024-02-21T10:51:07;9.90;99.90
11983;DHT22;72623;51.184;7.176;2024-02-21T10:56:38;10.00;99.90
11983;DHT22;72623;51.184;7.176;2024-02-21T10:59:07;10.10;99.90
11983;DHT22;72623;51.184;7.176;2024-02-21T11:01:34;10.10;99.90
11983;DHT22;72623;51.184;7.176;2024-02-21T11:04:03;10.10;99.90
11983;DHT22;72623;51.184;7.176;2024-02-21T11:06:31;10.10;99.90
11983;DHT22;72623;51.184;7.176;2024-02-21T11:09:06;10.20;99.90
11983;DHT22;72623;51.184;7.176;2024-02-21T11:11:39;10.30;99.90
11983;DHT22;72623;51.184;7.176;2024-02-21T11:14:11;10.30;99.90
11983;DHT22;72623;51.184;7.176;2024-02-21T11:16:40;10.30;99.90
11983;DHT22;72623;51.184;7.176;2024-02-21T11:19:09;10.40;99.90
11983;DHT22;72623;51.184;7.176;2024-02-21T11:21:37;10.40;99.90
11983;DHT22;72623;51.184;7.176;2024-02-21T11:24:04;10.40;99.90
11983;DHT22;72623;51.184;7.176;2024-02-21T11:26:32;10.40;99.90
11983;DHT22;72623;51.184;7.176;2024-02-21T11:29:02;10.40;99.90
11983;DHT22;72623;51.184;7.176;2024-02-21T11:31:39;10.40;99.90
11983;DHT22;72623;51.184;7.176;2024-02-21T11:34:10;10.50;99.90
11983;DHT22;72623;51.184;7.176;2024-02-21T11:36:49;10.40;99.90
11983;DHT22;72623;51.184;7.176;2024-02-21T11:39:26;10.50;99.90
11983;DHT22;72623;51.184;7.176;2024-02-21T11:42:06;10.60;99.90
11983;DHT22;72623;51.184;7.176;2024-02-21T11:44:37;10.70;99.90
11983;DHT22;72623;51.184;7.176;2024-02-21T11:47:06;10.80;99.90
11983;DHT22;72623;51.184;7.176;2024-02-21T11:49:42;10.80;99.90
11983;DHT22;72623;51.184;7.176;2024-02-21T11:52:09;10.80;99.90
11983;DHT22;72623;51.184;7.176;2024-02-21T11:54:36;10.80;98.90
11983;DHT22;72623;51.184;7.176;2024-02-21T11:57:03;10.70;99.90
11983;DHT22;72623;51.184;7.176;2024-02-21T11:59:30;10.70;99.90
11983;DHT22;72623;51.184;7.176;2024-02-21T12:01:58;10.70;99.90
11983;DHT22;72623;51.184;7.176;2024-02-21T12:04:26;10.60;99.90
11983;DHT22;72623;51.184;7.176;2024-02-21T12:06:53;10.60;99.50
11983;DHT22;72623;51.184;7.176;2024-02-21T12:09:19;10.70;99.90
11983;DHT22;72623;51.184;7.176;2024-02-21T12:11:57;10.60;98.40
11983;DHT22;72623;51.184;7.176;2024-02-21T12:14:25;10.50;99.10
11983;DHT22;72623;51.184;7.176;2024-02-21T12:16:54;10.50;99.90
11983;DHT22;72623;51.184;7.176;2024-02-21T12:19:21;10.50;99.90
11983;DHT22;72623;51.184;7.176;2024-02-21T12:21:48;10.60;99.90
11983;DHT22;72623;51.184;7.176;2024-02-21T12:24:27;10.60;99.90
11983;DHT22;72623;51.184;7.176;2024-02-21T12:26:55;10.70;99.50
11983;DHT22;72623;51.184;7.176;2024-02-21T12:29:24;10.70;99.90
11983;DHT22;72623;51.184;7.176;2024-02-21T12:31:52;10.70;99.90
11983;DHT22;72623;51.184;7.176;2024-02-21T12:34:21;10.70;99.80
11983;DHT22;72623;51.184;7.176;2024-02-21T12:36:49;10.60;99.90
11983;DHT22;72623;51.184;7.176;2024-02-21T12:39:23;10.60;99.00
11983;DHT22;72623;51.184;7.176;2024-02-21T12:41:50;10.50;98.30
11983;DHT22;72623;51.184;7.176;2024-02-21T12:44:17;10.40;99.40
11983;DHT22;72623;51.184;7.176;2024-02-21T12:46:44;10.50;99.90
11983;DHT22;72623;51.184;7.176;2024-02-21T12:49:10;10.50;99.90
11983;DHT22;72623;51.184;7.176;2024-02-21T12:51:46;10.60;99.80
11983;DHT22;72623;51.184;7.176;2024-02-21T12:54:13;10.60;99.90
11983;DHT22;72623;51.184;7.176;2024-02-21T12:56:40;10.70;97.60
11983;DHT22;72623;51.184;7.176;2024-02-21T12:59:11;10.70;99.90
11983;DHT22;72623;51.184;7.176;2024-02-21T13:01:39;10.60;98.70
11983;DHT22;72623;51.184;7.176;2024-02-21T13:04:06;10.70;97.30
11983;DHT22;72623;51.184;7.176;2024-02-21T13:06:32;10.70;99.10
11983;DHT22;72623;51.184;7.176;2024-02-21T13:09:00;10.60;97.80
11983;DHT22;72623;51.184;7.176;2024-02-21T13:11:29;10.60;97.80
11983;DHT22;72623;51.184;7.176;2024-02-21T13:13:56;10.60;97.20
11983;DHT22;72623;51.184;7.176;2024-02-21T13:16:23;10.60;98.20
11983;DHT22;72623;51.184;7.176;2024-02-21T13:18:51;10.60;96.80
11983;DHT22;72623;51.184;7.176;2024-02-21T13:21:18;10.60;99.60
11983;DHT22;72623;51.184;7.176;2024-02-21T13:23:45;10.70;98.50
11983;DHT22;72623;51.184;7.176;2024-02-21T13:26:12;10.70;97.80
11983;DHT22;72623;51.184;7.176;2024-02-21T13:28:53;10.80;97.60
11983;DHT22;72623;51.184;7.176;2024-02-21T13:31:21;10.80;98.00
11983;DHT22;72623;51.184;7.176;2024-02-21T13:33:47;10.90;97.70
11983;DHT22;72623;51.184;7.176;2024-02-21T13:36:14;10.90;96.90
11983;DHT22;72623;51.184;7.176;2024-02-21T13:38:41;11.00;97.50
11983;DHT22;72623;51.184;7.176;2024-02-21T13:41:08;11.00;93.60
11983;DHT22;72623;51.184;7.176;2024-02-21T13:43:34;11.10;96.40
11983;DHT22;72623;51.184;7.176;2024-02-21T13:46:02;11.00;94.40
11983;DHT22;72623;51.184;7.176;2024-02-21T13:48:30;11.00;94.50
11983;DHT22;72623;51.184;7.176;2024-02-21T13:50:58;11.00;95.00
11983;DHT22;72623;51.184;7.176;2024-02-21T13:53:27;11.00;95.00
11983;DHT22;72623;51.184;7.176;2024-02-21T13:56:12;11.00;96.10
11983;DHT22;72623;51.184;7.176;2024-02-21T13:58:39;11.00;96.10
11983;DHT22;72623;51.184;7.176;2024-02-21T14:01:06;11.10;96.50
11983;DHT22;72623;51.184;7.176;2024-02-21T14:03:34;11.10;95.90
11983;DHT22;72623;51.184;7.176;2024-02-21T14:06:01;11.10;95.30
11983;DHT22;72623;51.184;7.176;2024-02-21T14:08:29;11.10;94.30
11983;DHT22;72623;51.184;7.176;2024-02-21T14:10:56;11.10;95.90
11983;DHT22;72623;51.184;7.176;2024-02-21T14:13:24;11.00;93.70
11983;DHT22;72623;51.184;7.176;2024-02-21T14:15:51;11.00;93.80
11983;DHT22;72623;51.184;7.176;2024-02-21T14:18:19;11.00;94.60
11983;DHT22;72623;51.184;7.176;2024-02-21T14:20:46;11.00;95.00
11983;DHT22;72623;51.184;7.176;2024-02-21T14:23:13;11.00;95.60
11983;DHT22;72623;51.184;7.176;2024-02-21T14:25:40;11.10;97.30
11983;DHT22;72623;51.184;7.176;2024-02-21T14:28:07;11.10;96.00
11983;DHT22;72623;51.184;7.176;2024-02-21T14:30:35;11.10;96.00
11983;DHT22;72623;51.184;7.176;2024-02-21T14:33:01;11.00;96.80
11983;DHT22;72623;51.184;7.176;2024-02-21T14:35:28;11.10;96.20
11983;DHT22;72623;51.184;7.176;2024-02-21T14:37:55;11.10;97.80
11983;DHT22;72623;51.184;7.176;2024-02-21T14:40:23;11.10;97.60
11983;DHT22;72623;51.184;7.176;2024-02-21T14:42:49;11.10;94.10
11983;DHT22;72623;51.184;7.176;2024-02-21T14:45:17;11.20;93.70
11983;DHT22;72623;51.184;7.176;2024-02-21T14:47:44;11.10;94.40
11983;DHT22;72623;51.184;7.176;2024-02-21T14:50:12;11.10;94.80
11983;DHT22;72623;51.184;7.176;2024-02-21T14:52:38;11.10;92.90
11983;DHT22;72623;51.184;7.176;2024-02-21T14:55:05;11.10;93.30
11983;DHT22;72623;51.184;7.176;2024-02-21T14:57:32;11.00;93.10
11983;DHT22;72623;51.184;7.176;2024-02-21T14:59:59;11.00;93.40
11983;DHT22;72623;51.184;7.176;2024-02-21T15:02:26;11.00;93.50
11983;DHT22;72623;51.184;7.176;2024-02-21T15:04:58;11.00;93.20
11983;DHT22;72623;51.184;7.176;2024-02-21T15:07:25;11.00;93.60
11983;DHT22;72623;51.184;7.176;2024-02-21T15:09:52;11.00;92.90
11983;DHT22;72623;51.184;7.176;2024-02-21T15:12:18;11.00;95.30
11983;DHT22;72623;51.184;7.176;2024-02-21T15:14:45;11.00;95.60
11983;DHT22;72623;51.184;7.176;2024-02-21T15:17:12;11.00;95.40
11983;DHT22;72623;51.184;7.176;2024-02-21T15:19:39;11.10;94.50
11983;DHT22;72623;51.184;7.176;2024-02-21T15:22:09;11.20;90.60
11983;DHT22;72623;51.184;7.176;2024-02-21T15:24:39;11.10;91.70
11983;DHT22;72623;51.184;7.176;2024-02-21T15:27:06;11.10;92.20
11983;DHT22;72623;51.184;7.176;2024-02-21T15:29:34;11.10;91.90
11983;DHT22;72623;51.184;7.176;2024-02-21T15:32:01;11.10;91.30
11983;DHT22;72623;51.184;7.176;2024-02-21T15:34:28;11.00;90.60
11983;DHT22;72623;51.184;7.176;2024-02-21T15:36:56;11.00;90.50
11983;DHT22;72623;51.184;7.176;2024-02-21T15:39:23;11.00;90.70
11983;DHT22;72623;51.184;7.176;2024-02-21T15:41:52;11.00;90.10
11983;DHT22;72623;51.184;7.176;2024-02-21T15:44:19;11.10;86.00
11983;DHT22;72623;51.184;7.176;2024-02-21T15:46:46;11.00;84.90
11983;DHT22;72623;51.184;7.176;2024-02-21T15:49:13;11.00;89.30
11983;DHT22;72623;51.184;7.176;2024-02-21T15:51:40;11.00;88.10
11983;DHT22;72623;51.184;7.176;2024-02-21T15:54:08;11.00;94.80